createdAt,value
2019-04-10T00:00:30.723Z,13.87
2019-04-10T00:05:41.061Z,12.80
2019-04-10T00:10:55.017Z,12.20
2019-04-10T00:16:10.593Z,12.87
2019-04-10T00:21:22.946Z,12.85
2019-04-10T00:26:37.633Z,12.17
2019-04-10T00:31:54.154Z,14.30
2019-04-10T00:37:26.720Z,12.93
2019-04-10T00:42:34.890Z,13.68
2019-04-10T00:48:04.547Z,13.67
2019-04-10T00:53:12.743Z,14.27
2019-04-10T00:58:41.574Z,14.07
2019-04-10T01:03:52.563Z,13.97
2019-04-10T01:09:21.519Z,13.23
2019-04-10T01:14:32.226Z,13.73
2019-04-10T01:19:50.289Z,13.73
2019-04-10T01:25:00.225Z,13.07
2019-04-10T01:30:10.406Z,12.90
2019-04-10T01:35:18.667Z,13.53
2019-04-10T01:40:27.538Z,13.50
2019-04-10T01:45:39.846Z,13.37
2019-04-10T01:50:47.625Z,12.97
2019-04-10T01:56:27.462Z,13.13
2019-04-10T02:01:38.772Z,14.30
2019-04-10T02:06:55.827Z,13.27
2019-04-10T02:12:04.551Z,12.53
2019-04-10T02:17:12.597Z,12.20
2019-04-10T02:22:20.445Z,11.63
2019-04-10T02:27:35.411Z,10.50
2019-04-10T02:32:50.866Z,10.77
2019-04-10T02:38:25.924Z,10.97
2019-04-10T02:43:20.998Z,9.85
2019-04-10T02:48:33.872Z,9.20
2019-04-10T02:53:50.203Z,8.23
2019-04-10T02:59:07.236Z,10.13
2019-04-10T03:04:20.601Z,8.13
2019-04-10T03:09:52.847Z,8.93
2019-04-10T03:14:47.641Z,7.87
2019-04-10T03:20:03.015Z,7.60
2019-04-10T03:25:15.082Z,8.33
2019-04-10T03:30:34.656Z,9.85
2019-04-10T03:35:57.071Z,7.13
2019-04-10T03:41:03.909Z,9.50
2019-04-10T03:46:14.581Z,7.03
2019-04-10T03:51:32.637Z,8.28
2019-04-10T03:56:46.553Z,6.40
2019-04-10T04:02:01.585Z,6.93
2019-04-10T04:07:13.425Z,7.03
2019-04-10T04:12:28.780Z,7.30
2019-04-10T04:17:42.463Z,7.67
2019-04-10T04:22:59.236Z,7.13
2019-04-10T04:28:11.301Z,6.00
2019-04-10T04:33:23.207Z,7.00
2019-04-10T04:38:32.288Z,8.08
2019-04-10T04:43:47.644Z,6.13
2019-04-10T04:49:06.799Z,5.53
2019-04-10T04:54:23.717Z,10.93
2019-04-10T04:59:37.191Z,6.53
2019-04-10T05:04:44.087Z,6.73
2019-04-10T05:09:58.684Z,5.90
2019-04-10T05:15:10.913Z,6.40
2019-04-10T05:20:21.979Z,5.67
2019-04-10T05:25:37.801Z,6.97
2019-04-10T05:30:56.885Z,7.57
2019-04-10T05:36:09.563Z,8.57
2019-04-10T05:41:17.647Z,8.58
2019-04-10T05:46:30.359Z,5.13
2019-04-10T05:51:41.607Z,7.93
2019-04-10T05:57:01.153Z,8.97
2019-04-10T06:02:08.026Z,5.30
2019-04-10T06:07:19.721Z,5.47
2019-04-10T06:12:34.080Z,6.40
2019-04-10T06:17:49.355Z,7.03
2019-04-10T06:23:01.628Z,9.60
2019-04-10T06:28:14.859Z,5.77
2019-04-10T06:33:29.514Z,6.13
2019-04-10T06:38:41.209Z,7.27
2019-04-10T06:43:50.920Z,6.50
2019-04-10T06:49:09.256Z,4.57
2019-04-10T06:54:20.961Z,6.53
2019-04-10T06:59:30.451Z,6.03
2019-04-10T07:04:47.794Z,7.23
2019-04-10T07:10:02.314Z,6.60
2019-04-10T07:15:24.622Z,6.83
2019-04-10T07:20:37.887Z,7.30
2019-04-10T07:25:54.860Z,5.83
2019-04-10T07:31:08.119Z,9.13
2019-04-10T07:36:20.341Z,6.73
2019-04-10T07:41:31.869Z,6.57
2019-04-10T07:46:48.864Z,5.60
2019-04-10T07:52:03.618Z,7.27
2019-04-10T07:57:16.266Z,8.23
2019-04-10T08:02:27.597Z,6.30
2019-04-10T08:07:40.571Z,5.87
2019-04-10T08:12:53.199Z,7.13
2019-04-10T08:18:00.392Z,8.63
2019-04-10T08:23:15.643Z,5.40
2019-04-10T08:28:34.862Z,6.22
2019-04-10T08:33:50.456Z,9.13
2019-04-10T08:39:00.738Z,6.47
2019-04-10T08:44:18.081Z,8.57
2019-04-10T08:49:25.318Z,6.33
2019-04-10T08:54:36.801Z,7.00
2019-04-10T08:59:51.979Z,8.00
2019-04-10T09:04:57.836Z,6.80
2019-04-10T09:10:14.357Z,6.87
2019-04-10T09:21:13.320Z,9.37
2019-04-10T09:26:33.187Z,6.80
2019-04-10T09:31:40.000Z,13.30
2019-04-10T09:36:49.231Z,8.47
2019-04-10T09:42:01.103Z,7.30
2019-04-10T09:47:12.582Z,7.90
2019-04-10T09:52:19.045Z,6.80
2019-04-10T09:57:32.500Z,7.67
2019-04-10T10:02:45.269Z,8.70
2019-04-10T10:08:02.446Z,7.50
2019-04-10T10:13:33.984Z,8.23
2019-04-10T10:18:46.252Z,7.97
2019-04-10T10:23:58.143Z,6.87
2019-04-10T10:30:02.221Z,7.00
2019-04-10T10:34:30.209Z,6.87
2019-04-10T10:39:41.172Z,12.18
2019-04-10T10:44:56.486Z,7.58
2019-04-10T10:50:01.807Z,8.83
2019-04-10T10:55:07.742Z,7.70
2019-04-10T11:00:20.527Z,10.53
2019-04-10T11:05:37.092Z,8.20
2019-04-10T11:16:07.601Z,9.05
2019-04-10T11:21:18.225Z,6.87
2019-04-10T11:26:32.116Z,10.43
2019-04-10T11:31:58.033Z,7.05
2019-04-10T11:37:39.172Z,7.00
2019-04-10T11:42:40.192Z,7.20
2019-04-10T11:47:51.224Z,6.87
2019-04-10T11:53:07.032Z,8.68
2019-04-10T11:58:28.922Z,7.53
2019-04-10T12:03:48.520Z,7.00
2019-04-10T12:09:29.051Z,7.28
2019-04-10T12:14:21.590Z,6.97
2019-04-10T12:19:33.296Z,6.65
2019-04-10T12:24:43.769Z,6.93
2019-04-10T12:30:33.305Z,6.22
2019-04-10T12:35:49.953Z,7.20
2019-04-10T12:41:08.890Z,6.45
2019-04-10T12:46:15.210Z,6.87
2019-04-10T12:51:22.480Z,6.80
2019-04-10T12:56:34.854Z,5.70
2019-04-10T13:01:51.100Z,6.58
2019-04-10T13:07:21.246Z,6.35
2019-04-10T13:12:37.542Z,6.58
2019-04-10T13:18:16.674Z,6.87
2019-04-10T13:23:26.465Z,7.77
2019-04-10T13:28:43.576Z,11.63
2019-04-10T13:33:53.133Z,6.85
2019-04-10T13:39:05.137Z,7.10
2019-04-10T13:44:18.214Z,6.70
2019-04-10T13:49:31.280Z,6.62
2019-04-10T13:54:40.985Z,6.90
2019-04-10T13:59:50.904Z,6.93
2019-04-10T14:05:13.685Z,8.43
2019-04-10T14:10:25.010Z,7.55
2019-04-10T14:15:32.226Z,6.53
2019-04-10T14:20:51.309Z,6.30
2019-04-10T14:26:04.589Z,6.90
2019-04-10T14:31:28.933Z,7.43
2019-04-10T14:36:42.277Z,4.87
2019-04-10T14:42:00.160Z,5.47
2019-04-10T14:47:19.223Z,5.08
2019-04-10T14:52:28.059Z,5.55
2019-04-10T14:57:43.046Z,9.83
2019-04-10T15:02:58.038Z,6.12
2019-04-10T15:08:12.696Z,5.40
2019-04-10T15:13:27.722Z,5.03
2019-04-10T15:18:35.394Z,10.13
2019-04-10T15:23:47.000Z,6.07
2019-04-10T15:29:02.319Z,6.43
2019-04-10T15:34:16.838Z,4.27
2019-04-10T15:39:33.963Z,4.40
2019-04-10T15:44:40.846Z,5.13
2019-04-10T15:49:53.604Z,4.23
2019-04-10T15:55:01.914Z,4.37
2019-04-10T16:00:17.180Z,5.00
2019-04-10T16:05:31.415Z,4.65
2019-04-10T16:11:05.641Z,8.67
2019-04-10T16:16:50.831Z,6.33
2019-04-10T16:22:08.667Z,6.50
2019-04-10T16:27:24.379Z,6.00
2019-04-10T16:32:30.140Z,6.57
2019-04-10T16:37:49.497Z,6.03
2019-04-10T16:43:06.022Z,6.27
2019-04-10T16:48:21.651Z,5.97
2019-04-10T16:53:31.376Z,5.10
2019-04-10T16:58:41.119Z,8.03
2019-04-10T17:03:56.771Z,6.47
2019-04-10T17:09:16.585Z,9.53
2019-04-10T17:14:24.428Z,6.50
2019-04-10T17:19:46.573Z,6.17
2019-04-10T17:24:53.678Z,9.10
2019-04-10T17:30:05.270Z,5.33
2019-04-10T17:35:15.976Z,3.95
2019-04-10T17:40:33.066Z,5.65
2019-04-10T17:45:31.750Z,5.13
2019-04-10T17:50:37.813Z,2.87
2019-04-10T17:55:45.828Z,4.33
2019-04-10T18:00:57.788Z,2.80
2019-04-10T18:06:10.931Z,4.40
2019-04-10T18:11:26.135Z,7.57
2019-04-10T18:16:38.015Z,4.77
2019-04-10T18:21:44.490Z,3.70
2019-04-10T18:26:57.896Z,4.27
2019-04-10T18:32:05.511Z,3.03
2019-04-10T18:37:15.954Z,5.75
2019-04-10T18:42:29.240Z,2.93
2019-04-10T18:47:38.058Z,4.23
2019-04-10T18:52:51.837Z,4.40
2019-04-10T18:57:59.042Z,4.67
2019-04-10T19:03:44.927Z,4.10
2019-04-10T19:08:46.206Z,5.83
2019-04-10T19:14:00.814Z,2.93
2019-04-10T19:19:08.233Z,2.90
2019-04-10T19:24:24.162Z,6.37
2019-04-10T19:29:36.369Z,4.90
2019-04-10T19:34:41.908Z,6.10
2019-04-10T19:39:51.782Z,5.73
2019-04-10T19:45:05.709Z,3.83
2019-04-10T19:50:17.740Z,3.40
2019-04-10T19:55:37.919Z,3.13
2019-04-10T20:00:46.460Z,4.00
2019-04-10T20:06:22.082Z,4.17
2019-04-10T20:11:41.453Z,3.23
2019-04-10T20:16:52.626Z,4.30
2019-04-10T20:22:12.606Z,5.77
2019-04-10T20:27:32.053Z,4.57
2019-04-10T20:32:46.043Z,4.93
2019-04-10T20:37:57.408Z,4.63
2019-04-10T20:43:10.734Z,4.93
2019-04-10T20:48:16.180Z,6.20
2019-04-10T20:53:24.171Z,4.60
2019-04-10T20:58:38.233Z,6.20
2019-04-10T21:04:05.306Z,6.10
2019-04-10T21:09:19.048Z,5.00
2019-04-10T21:14:31.768Z,4.73
2019-04-10T21:19:51.576Z,4.30
2019-04-10T21:24:54.576Z,4.50
2019-04-10T21:30:26.254Z,6.00
2019-04-10T21:35:41.506Z,4.97
2019-04-10T21:40:59.501Z,5.33
2019-04-10T21:46:18.545Z,5.17
2019-04-10T21:51:25.403Z,8.08
2019-04-10T21:56:41.525Z,5.67
2019-04-10T22:01:52.968Z,5.83
2019-04-10T22:07:20.440Z,6.87
2019-04-10T22:12:34.625Z,6.12
2019-04-10T22:18:07.323Z,7.37
2019-04-10T22:23:26.561Z,8.37
2019-04-10T22:28:37.535Z,7.20
2019-04-10T22:33:48.847Z,8.50
2019-04-10T22:39:02.633Z,5.70
2019-04-10T22:44:13.870Z,5.97
2019-04-10T22:49:23.698Z,6.85
2019-04-10T22:54:37.341Z,5.87
2019-04-10T22:59:51.739Z,7.83
2019-04-10T23:05:07.616Z,6.17
2019-04-10T23:10:15.611Z,7.37
2019-04-10T23:15:25.215Z,6.70
2019-04-10T23:20:30.612Z,7.47
2019-04-10T23:25:45.087Z,5.77
2019-04-10T23:30:50.958Z,7.60
2019-04-10T23:36:09.729Z,6.13
2019-04-10T23:41:28.280Z,7.83
2019-04-10T23:46:45.239Z,7.57
2019-04-10T23:51:51.625Z,7.87
2019-04-10T23:57:05.746Z,7.30
